createdAt,value
2022-11-26T00:01:49.734Z,7.56
2022-11-26T00:06:49.645Z,7.61
2022-11-26T00:11:49.573Z,7.65
2022-11-26T00:16:49.550Z,7.66
2022-11-26T00:21:49.448Z,7.66
2022-11-26T00:26:49.376Z,7.71
2022-11-26T00:31:49.430Z,7.71
2022-11-26T00:36:49.244Z,7.74
2022-11-26T00:41:49.186Z,7.72
2022-11-26T00:46:49.115Z,7.72
2022-11-26T00:51:49.056Z,7.71
2022-11-26T00:56:48.988Z,7.69
2022-11-26T01:01:49.005Z,7.63
2022-11-26T01:06:48.852Z,7.61
2022-11-26T01:11:53.851Z,7.60
2022-11-26T01:16:48.790Z,7.60
2022-11-26T01:21:48.671Z,7.61
2022-11-26T01:26:48.587Z,7.65
2022-11-26T01:31:48.630Z,7.68
2022-11-26T01:36:48.457Z,7.71
2022-11-26T01:41:48.399Z,7.72
2022-11-26T01:46:48.327Z,7.74
2022-11-26T01:51:48.270Z,7.74
2022-11-26T01:56:48.195Z,7.71
2022-11-26T02:01:48.181Z,7.63
2022-11-26T02:06:48.065Z,7.56
2022-11-26T02:11:48.014Z,7.51
2022-11-26T02:16:47.992Z,7.50
2022-11-26T02:21:47.891Z,7.42
2022-11-26T02:26:47.806Z,7.36
2022-11-26T02:31:47.818Z,7.32
2022-11-26T02:36:47.672Z,7.21
2022-11-26T02:41:47.623Z,7.11
2022-11-26T02:46:47.541Z,7.00
2022-11-26T02:51:47.493Z,6.96
2022-11-26T02:56:47.420Z,6.95
2022-11-26T03:01:47.352Z,6.97
2022-11-26T03:06:47.292Z,7.05
2022-11-26T03:11:47.280Z,7.14
2022-11-26T03:16:47.197Z,7.21
2022-11-26T03:21:47.090Z,7.25
2022-11-26T03:26:47.025Z,7.31
2022-11-26T03:31:47.051Z,7.33
2022-11-26T03:36:46.888Z,7.36
2022-11-26T03:41:46.839Z,7.33
2022-11-26T03:46:46.758Z,7.32
2022-11-26T03:51:46.707Z,7.33
2022-11-26T03:56:46.625Z,7.35
2022-11-26T04:01:46.634Z,7.36
2022-11-26T04:06:46.494Z,7.38
2022-11-26T04:11:46.436Z,7.38
2022-11-26T04:16:46.441Z,7.35
2022-11-26T04:21:46.309Z,7.31
2022-11-26T04:26:46.244Z,7.25
2022-11-26T04:31:46.275Z,7.23
2022-11-26T04:36:46.115Z,7.23
2022-11-26T04:41:46.049Z,7.23
2022-11-26T04:46:45.982Z,7.24
2022-11-26T04:51:45.916Z,7.28
2022-11-26T04:56:45.843Z,7.28
2022-11-26T05:01:45.878Z,7.24
2022-11-26T05:06:45.713Z,7.23
2022-11-26T05:11:45.657Z,7.17
2022-11-26T05:16:45.653Z,7.13
2022-11-26T05:21:45.524Z,7.06
2022-11-26T05:26:45.452Z,7.03
2022-11-26T05:31:45.424Z,6.96
2022-11-26T05:36:45.320Z,6.91
2022-11-26T05:41:45.264Z,6.83
2022-11-26T05:46:45.190Z,6.80
2022-11-26T05:51:45.131Z,6.76
2022-11-26T05:56:45.060Z,6.76
2022-11-26T06:01:45.002Z,6.80
2022-11-26T06:06:44.928Z,6.81
2022-11-26T06:11:44.873Z,6.83
2022-11-26T06:16:44.895Z,6.83
2022-11-26T06:21:44.741Z,6.83
2022-11-26T06:26:44.677Z,6.80
2022-11-26T06:31:44.692Z,6.73
2022-11-26T06:36:44.546Z,6.68
2022-11-26T06:41:44.611Z,6.65
2022-11-26T06:46:44.416Z,6.66
2022-11-26T06:51:44.351Z,6.71
2022-11-26T06:56:44.275Z,6.73
2022-11-26T07:01:44.307Z,6.74
2022-11-26T07:06:44.147Z,6.76
2022-11-26T07:11:44.091Z,6.73
2022-11-26T07:16:44.015Z,6.69
2022-11-26T07:21:43.955Z,6.68
2022-11-26T07:26:43.882Z,6.96
2022-11-26T07:31:43.925Z,7.33
2022-11-26T07:36:43.762Z,7.71
2022-11-26T07:41:43.695Z,8.17
2022-11-26T07:46:43.698Z,8.73
2022-11-26T07:51:43.564Z,9.39
2022-11-26T07:56:43.509Z,10.17
2022-11-26T08:01:43.497Z,11.13
2022-11-26T08:06:43.371Z,12.17
2022-11-26T08:11:43.303Z,13.34
2022-11-26T08:16:43.242Z,14.23
2022-11-26T08:21:43.183Z,14.77
2022-11-26T08:26:44.330Z,15.27
2022-11-26T08:31:46.225Z,15.82
2022-11-26T08:36:42.970Z,16.59
2022-11-26T08:41:46.086Z,16.99
2022-11-26T08:46:42.838Z,17.36
2022-11-26T08:51:42.796Z,17.73
2022-11-26T08:56:42.704Z,17.84
2022-11-26T09:01:42.712Z,18.14
2022-11-26T09:06:42.576Z,18.28
2022-11-26T09:11:42.521Z,18.50
2022-11-26T09:16:42.582Z,18.77
2022-11-26T09:21:42.387Z,19.58
2022-11-26T09:26:42.316Z,20.31
2022-11-26T09:32:00.652Z,20.69
2022-11-26T09:36:43.211Z,20.11
2022-11-26T09:41:42.134Z,20.34
2022-11-26T09:47:09.882Z,19.81
2022-11-26T09:51:43.053Z,19.46
2022-11-26T09:56:41.925Z,19.47
2022-11-26T10:01:42.157Z,19.91
2022-11-26T10:06:41.796Z,20.13
2022-11-26T10:11:41.752Z,20.28
2022-11-26T10:16:41.750Z,20.28
2022-11-26T10:26:42.563Z,20.09
2022-11-26T10:31:41.535Z,20.09
2022-11-26T10:36:41.414Z,19.99
2022-11-26T10:41:41.361Z,19.92
2022-11-26T10:46:41.337Z,19.95
2022-11-26T10:51:41.240Z,19.89
2022-11-26T10:56:41.171Z,19.44
2022-11-26T11:01:41.276Z,19.23
2022-11-26T11:06:41.035Z,18.96
2022-11-26T11:11:40.993Z,19.17
2022-11-26T11:16:41.010Z,19.38
2022-11-26T11:21:46.577Z,19.63
2022-11-26T11:26:40.775Z,19.43
2022-11-26T11:31:40.751Z,19.06
2022-11-26T11:36:40.644Z,18.41
2022-11-26T11:41:40.586Z,17.42
2022-11-26T11:46:40.512Z,16.68
2022-11-26T11:51:40.454Z,15.95
2022-11-26T11:56:40.384Z,15.57
2022-11-26T12:01:40.392Z,15.14
2022-11-26T12:06:40.253Z,14.54
2022-11-26T12:11:40.194Z,14.15
2022-11-26T12:16:40.261Z,13.85
2022-11-26T12:21:40.073Z,13.66
2022-11-26T12:26:39.992Z,13.48
2022-11-26T12:31:40.005Z,13.45
2022-11-26T12:36:39.856Z,13.36
2022-11-26T12:41:39.806Z,13.03
2022-11-26T12:46:39.723Z,12.61
2022-11-26T12:51:39.669Z,12.28
2022-11-26T12:56:39.588Z,12.01
2022-11-26T13:01:39.596Z,11.80
2022-11-26T13:06:39.459Z,11.54
2022-11-26T13:11:39.402Z,11.35
2022-11-26T13:16:39.439Z,11.11
2022-11-26T13:21:39.271Z,10.93
2022-11-26T13:26:39.197Z,10.80
2022-11-26T13:31:39.174Z,10.75
2022-11-26T13:36:39.077Z,10.85
2022-11-26T13:41:39.009Z,10.95
2022-11-26T13:46:38.935Z,11.03
2022-11-26T13:51:38.876Z,11.09
2022-11-26T13:56:38.804Z,11.13
2022-11-26T14:01:38.784Z,11.14
2022-11-26T14:06:38.674Z,11.14
2022-11-26T14:11:38.616Z,11.11
2022-11-26T14:16:38.606Z,11.10
2022-11-26T14:21:38.486Z,11.07
2022-11-26T14:26:38.428Z,11.01
2022-11-26T14:31:38.376Z,10.95
2022-11-26T14:36:38.291Z,10.91
2022-11-26T14:41:38.222Z,10.81
2022-11-26T14:46:38.162Z,10.73
2022-11-26T14:51:38.093Z,10.63
2022-11-26T14:56:38.020Z,10.50
2022-11-26T15:01:37.964Z,10.34
2022-11-26T15:06:37.889Z,10.17
2022-11-26T15:11:37.831Z,10.02
2022-11-26T15:16:37.814Z,9.92
2022-11-26T15:21:37.702Z,9.86
2022-11-26T15:26:37.626Z,9.79
2022-11-26T15:31:37.568Z,9.72
2022-11-26T15:36:37.503Z,9.68
2022-11-26T15:41:41.016Z,9.63
2022-11-26T15:46:37.403Z,9.57
2022-11-26T15:51:37.360Z,9.50
2022-11-26T15:56:37.239Z,9.46
2022-11-26T16:01:37.201Z,9.42
2022-11-26T16:06:37.112Z,9.35
2022-11-26T16:11:37.073Z,9.28
2022-11-26T16:16:37.028Z,9.28
2022-11-26T16:21:36.911Z,9.28
2022-11-26T16:26:36.849Z,9.33
2022-11-26T16:31:36.782Z,9.21
2022-11-26T16:36:36.719Z,9.04
2022-11-26T16:41:36.650Z,8.92
2022-11-26T16:46:36.664Z,8.76
2022-11-26T16:51:36.522Z,8.61
2022-11-26T16:56:36.449Z,8.45
2022-11-26T17:01:36.392Z,8.32
2022-11-26T17:06:36.320Z,8.25
2022-11-26T17:11:36.262Z,8.11
2022-11-26T17:16:36.247Z,7.99
2022-11-26T17:21:36.135Z,7.82
2022-11-26T17:26:36.064Z,7.71
2022-11-26T17:31:36.025Z,7.60
2022-11-26T17:36:37.088Z,7.54
2022-11-26T17:41:35.873Z,7.48
2022-11-26T17:47:00.944Z,7.43
2022-11-26T17:51:36.769Z,7.36
2022-11-26T17:56:35.678Z,7.28
2022-11-26T18:01:35.692Z,7.18
2022-11-26T18:06:35.547Z,7.10
2022-11-26T18:11:35.479Z,6.96
2022-11-26T18:16:35.717Z,6.83
2022-11-26T18:21:35.349Z,6.73
2022-11-26T18:26:35.276Z,6.63
2022-11-26T18:31:39.313Z,6.56
2022-11-26T18:36:35.143Z,6.50
2022-11-26T18:41:35.084Z,6.45
2022-11-26T18:46:35.050Z,6.40
2022-11-26T18:51:34.955Z,6.34
2022-11-26T18:56:34.881Z,6.27
2022-11-26T19:01:35.029Z,6.20
2022-11-26T19:06:34.750Z,6.14
2022-11-26T19:11:34.692Z,6.08
2022-11-26T19:16:34.655Z,6.01
2022-11-26T19:21:34.566Z,5.98
2022-11-26T19:26:34.489Z,5.97
2022-11-26T19:31:34.635Z,5.90
2022-11-26T19:36:34.358Z,5.86
2022-11-26T19:41:34.309Z,5.82
2022-11-26T19:46:34.278Z,5.75
2022-11-26T19:51:34.175Z,5.69
2022-11-26T19:56:34.101Z,5.69
2022-11-26T20:01:34.294Z,5.62
2022-11-26T20:06:33.963Z,5.54
2022-11-26T20:11:33.916Z,5.46
2022-11-26T20:16:33.905Z,5.43
2022-11-26T20:21:33.772Z,5.45
2022-11-26T20:26:33.708Z,5.40
2022-11-26T20:31:33.802Z,5.42
2022-11-26T20:36:33.564Z,5.40
2022-11-26T20:41:33.504Z,5.38
2022-11-26T20:46:33.496Z,5.35
2022-11-26T20:51:33.372Z,5.31
2022-11-26T20:56:33.300Z,5.27
2022-11-26T21:01:33.324Z,5.24
2022-11-26T21:06:33.165Z,5.17
2022-11-26T21:11:33.116Z,5.13
2022-11-26T21:16:33.073Z,5.09
2022-11-26T21:21:32.982Z,5.04
2022-11-26T21:26:32.901Z,4.98
2022-11-26T21:31:32.856Z,4.95
2022-11-26T21:36:32.786Z,4.91
2022-11-26T21:41:32.701Z,4.86
2022-11-26T21:46:37.981Z,4.77
2022-11-26T21:51:32.568Z,4.71
2022-11-26T21:56:32.520Z,4.63
2022-11-26T22:01:32.520Z,4.58
2022-11-26T22:06:32.385Z,4.52
2022-11-26T22:11:32.303Z,4.50
2022-11-26T22:16:32.337Z,4.52
2022-11-26T22:21:32.172Z,4.55
2022-11-26T22:26:32.116Z,4.56
2022-11-26T22:31:32.192Z,4.56
2022-11-26T22:36:31.992Z,4.56
2022-11-26T22:41:31.916Z,4.58
2022-11-26T22:46:31.921Z,4.50
2022-11-26T22:51:31.787Z,4.49
2022-11-26T22:56:31.751Z,4.40
2022-11-26T23:01:31.660Z,4.35
2022-11-26T23:06:31.614Z,4.30
2022-11-26T23:11:31.533Z,4.23
2022-11-26T23:16:31.505Z,4.22
2022-11-26T23:21:31.411Z,4.14
2022-11-26T23:26:31.355Z,4.10
2022-11-26T23:31:31.358Z,4.03
2022-11-26T23:36:31.217Z,3.98
2022-11-26T23:41:31.153Z,3.93
2022-11-26T23:46:31.268Z,3.86
2022-11-26T23:51:31.017Z,3.83
2022-11-26T23:56:30.964Z,3.80
